Airfield :
LOGIN :

Register | Disclaimer

   EN    FR    IT 

 










Legend :    VFR   Marginal VFR   IFR   Intensive IFR   Very Intensive IFR
Visi :
Ceiling :
>= 8 km
>= 3000ft
5 to 8 km
1000 to 3000 ft
1500m to 5 km
500 to 1000 ft
800 to 1500m
200 to 500 ft
< 800m
< 200 ft
Symbols :   Thunderstorms  Fog  Heavy snow  Heavy precipitations  Wind > 20 kt
SIGMETs :     Misc.  Thunderstorms  Icing  Turbulence  Mountain Waves  Volcanic Ashes






- Airport Elevation : 1487 ft
- IATA code : MUC


EDDM - München Franz Josef Strauss

CURRENT METAR :
  • 231020Z 29003KT 250V330 9999 SCT020 08/04 Q1028 NOSIG

EXPIRED METARs :
  • 230950Z 31004KT 220V350 9999 BKN018 09/04 Q1028 NOSIG
  • 230920Z 27006KT 240V320 9999 FEW017 08/04 Q1028 NOSIG
  • 230850Z 24005KT 200V300 9999 FEW017 09/04 Q1028 NOSIG
  • 230820Z 24007KT 9999 VCSH SCT017 BKN030 07/03 Q1028 NOSIG
  • 230750Z 27005KT 9999 -RA SCT017 06/03 Q1028 NOSIG

TAF TAF EDDM
Valid from the 23 at 06:00 until the 24 at 12:00 UTC


230500Z 2306/2412 24006KT 9999 SCT020
BECMG 2314/2316 VRB03KT
TEMPO 2322/2408 4000 BCFG
BECMG 2400/2403 07006KT
PROB30
TEMPO 2402/2408 0700 FZFG



MET'MAP, your aeronautical weather chart ! - Copyright ORBIFLY December 2007 - Disclaimer

ORBIFLY MET'MAP TEAM :

Programming & Development : Alexandra Zaïnal
Concept & original design : Baudouin d'Aumeries
Assistance for programming : Marc-Olivier Méhu
Technical & hardware support : Manuel Goepfert

Contact : metmap@orbifly.com




SOURCES & CREDITS :

   NOAA